createdAt,value
2022-12-18T00:00:08.137Z,49.03
2022-12-18T00:02:36.610Z,49.04
2022-12-18T00:05:05.698Z,48.82
2022-12-18T00:07:36.216Z,49.04
2022-12-18T00:10:05.422Z,48.92
2022-12-18T00:12:34.828Z,48.76
2022-12-18T00:15:04.903Z,49.02
2022-12-18T00:17:33.430Z,48.79
2022-12-18T00:20:01.922Z,49.07
2022-12-18T00:22:30.310Z,48.98
2022-12-18T00:24:58.748Z,48.59
2022-12-18T00:27:27.102Z,48.77
2022-12-18T00:29:55.489Z,49.14
2022-12-18T00:32:23.914Z,48.91
2022-12-18T00:34:52.332Z,48.66
2022-12-18T00:37:20.715Z,48.50
2022-12-18T00:39:50.267Z,48.49
2022-12-18T00:42:37.176Z,48.12
2022-12-18T00:45:12.109Z,48.52
2022-12-18T00:47:41.447Z,48.25
2022-12-18T00:50:10.751Z,48.46
2022-12-18T00:52:39.180Z,48.66
2022-12-18T00:55:08.039Z,48.94
2022-12-18T00:57:36.662Z,49.18
2022-12-18T01:00:07.236Z,48.77
2022-12-18T01:02:36.041Z,49.41
2022-12-18T01:05:05.464Z,48.98
2022-12-18T01:07:33.886Z,48.85
2022-12-18T01:10:02.309Z,48.24
2022-12-18T01:12:30.708Z,48.62
2022-12-18T01:14:59.256Z,48.50
2022-12-18T01:17:27.763Z,48.81
2022-12-18T01:19:56.182Z,48.57
2022-12-18T01:22:24.745Z,48.73
2022-12-18T01:24:53.150Z,48.61
2022-12-18T01:27:21.605Z,48.34
2022-12-18T01:29:50.264Z,47.95
2022-12-18T01:32:18.714Z,47.97
2022-12-18T01:34:47.186Z,48.17
2022-12-18T01:37:15.639Z,48.69
2022-12-18T01:39:44.127Z,48.35
2022-12-18T01:42:15.696Z,48.75
2022-12-18T01:45:00.898Z,48.91
2022-12-18T01:47:44.603Z,48.73
2022-12-18T01:50:34.726Z,48.46
2022-12-18T01:53:08.900Z,48.55
2022-12-18T01:55:43.884Z,48.40
2022-12-18T01:58:12.397Z,47.90
2022-12-18T02:00:41.035Z,47.68
2022-12-18T02:03:09.792Z,47.52
2022-12-18T02:05:50.283Z,48.03
2022-12-18T02:08:29.720Z,47.89
2022-12-18T02:11:29.803Z,47.03
2022-12-18T02:13:58.140Z,47.46
2022-12-18T02:16:41.276Z,47.40
2022-12-18T02:19:30.143Z,46.69
2022-12-18T02:22:11.304Z,47.40
2022-12-18T02:25:07.453Z,47.91
2022-12-18T02:27:37.955Z,47.77
2022-12-18T02:30:09.193Z,48.14
2022-12-18T02:32:43.854Z,47.74
2022-12-18T02:35:16.382Z,47.97
2022-12-18T02:37:47.800Z,47.70
2022-12-18T02:40:18.231Z,48.32
2022-12-18T02:42:47.580Z,48.20
2022-12-18T02:45:16.097Z,48.01
2022-12-18T02:47:48.300Z,48.05
2022-12-18T02:50:16.610Z,47.95
2022-12-18T02:53:02.130Z,47.22
2022-12-18T02:55:51.673Z,47.07
2022-12-18T02:58:31.354Z,47.04
2022-12-18T03:01:08.302Z,47.70
2022-12-18T03:03:45.162Z,47.51
2022-12-18T03:06:50.722Z,47.21
2022-12-18T03:09:27.462Z,47.39
2022-12-18T03:12:21.393Z,47.04
2022-12-18T03:15:20.137Z,47.19
2022-12-18T03:18:02.481Z,47.01
2022-12-18T03:20:33.818Z,46.98
2022-12-18T03:23:12.036Z,47.13
2022-12-18T03:25:44.010Z,46.83
2022-12-18T03:28:20.661Z,46.96
2022-12-18T03:30:54.804Z,46.51
2022-12-18T03:33:36.124Z,47.48
2022-12-18T03:36:05.052Z,47.09
2022-12-18T03:38:34.742Z,47.72
2022-12-18T03:41:06.173Z,47.36
2022-12-18T03:44:05.028Z,47.22
2022-12-18T03:46:53.636Z,47.05
2022-12-18T03:49:44.036Z,47.15
2022-12-18T03:52:27.615Z,46.85
2022-12-18T03:54:58.844Z,46.66
2022-12-18T03:57:30.547Z,46.51
2022-12-18T04:00:07.356Z,46.06
2022-12-18T04:02:39.122Z,46.64
2022-12-18T04:05:09.880Z,46.47
2022-12-18T04:07:40.187Z,46.97
2022-12-18T04:10:12.348Z,46.38
2022-12-18T04:12:40.782Z,47.26
2022-12-18T04:15:10.282Z,46.81
2022-12-18T04:17:40.046Z,46.07
2022-12-18T04:20:09.830Z,46.15
2022-12-18T04:22:38.246Z,46.37
2022-12-18T04:25:06.975Z,46.49
2022-12-18T04:27:35.672Z,47.09
2022-12-18T04:30:04.654Z,46.46
2022-12-18T04:32:34.727Z,46.21
2022-12-18T04:35:05.152Z,46.42
2022-12-18T04:37:33.560Z,46.88
2022-12-18T04:40:03.031Z,46.25
2022-12-18T04:42:31.516Z,46.35
2022-12-18T04:44:59.986Z,46.44
2022-12-18T04:47:28.444Z,46.85
2022-12-18T04:49:57.010Z,45.80
2022-12-18T04:52:25.566Z,46.39
2022-12-18T04:54:53.982Z,46.76
2022-12-18T04:57:22.389Z,46.46
2022-12-18T04:59:50.844Z,46.49
2022-12-18T05:02:19.435Z,46.66
2022-12-18T05:04:48.111Z,46.48
2022-12-18T05:07:16.670Z,46.85
2022-12-18T05:09:45.089Z,47.20
2022-12-18T05:12:13.647Z,47.24
2022-12-18T05:14:42.180Z,47.08
2022-12-18T05:17:10.716Z,47.21
2022-12-18T05:19:39.406Z,47.33
2022-12-18T05:22:07.766Z,47.11
2022-12-18T05:24:36.407Z,47.25
2022-12-18T05:27:04.893Z,46.04
2022-12-18T05:29:33.307Z,46.32
2022-12-18T05:32:01.818Z,46.70
2022-12-18T05:34:30.290Z,46.40
2022-12-18T05:36:58.677Z,46.80
2022-12-18T05:39:27.211Z,46.05
2022-12-18T05:41:55.606Z,45.93
2022-12-18T05:44:24.072Z,45.97
2022-12-18T05:46:52.440Z,46.36
2022-12-18T05:49:20.974Z,46.39
2022-12-18T05:51:49.345Z,47.00
2022-12-18T05:54:17.966Z,47.20
2022-12-18T05:56:48.787Z,47.38
2022-12-18T05:59:17.555Z,46.36
2022-12-18T06:01:46.811Z,46.46
2022-12-18T06:04:15.593Z,46.44
2022-12-18T06:06:44.117Z,46.23
2022-12-18T06:09:12.879Z,46.25
2022-12-18T06:11:41.402Z,46.75
2022-12-18T06:14:10.809Z,46.57
2022-12-18T06:16:39.285Z,45.96
2022-12-18T06:19:07.726Z,45.50
2022-12-18T06:21:36.218Z,45.68
2022-12-18T06:24:04.994Z,46.30
2022-12-18T06:26:33.435Z,46.21
2022-12-18T06:29:01.794Z,46.49
2022-12-18T06:31:30.308Z,46.48
2022-12-18T06:33:59.298Z,46.60
2022-12-18T06:36:27.741Z,46.62
2022-12-18T06:38:58.435Z,46.23
2022-12-18T06:41:27.871Z,46.77
2022-12-18T06:43:59.707Z,46.80
2022-12-18T06:46:28.317Z,46.92
2022-12-18T06:48:56.751Z,47.07
2022-12-18T06:51:25.636Z,47.03
2022-12-18T06:53:55.054Z,47.58
2022-12-18T06:56:23.453Z,47.69
2022-12-18T06:58:51.887Z,47.14
2022-12-18T07:01:20.599Z,47.19
2022-12-18T07:03:54.557Z,47.80
2022-12-18T07:06:25.584Z,47.69
2022-12-18T07:08:55.259Z,47.80
2022-12-18T07:11:24.242Z,47.47
2022-12-18T07:13:53.400Z,47.43
2022-12-18T07:16:25.381Z,47.17
2022-12-18T07:18:56.461Z,47.59
2022-12-18T07:21:26.174Z,47.50
2022-12-18T07:23:54.895Z,47.49
2022-12-18T07:26:24.557Z,47.51
2022-12-18T07:28:56.565Z,47.35
2022-12-18T07:31:25.561Z,47.62
2022-12-18T07:33:54.233Z,47.72
2022-12-18T07:36:22.626Z,47.48
2022-12-18T07:38:52.925Z,47.36
2022-12-18T07:41:26.462Z,46.96
2022-12-18T07:43:54.905Z,47.06
2022-12-18T07:46:23.810Z,47.68
2022-12-18T07:48:52.222Z,47.68
2022-12-18T07:51:20.695Z,47.18
2022-12-18T07:53:52.472Z,47.50
2022-12-18T07:56:30.327Z,47.60
2022-12-18T07:59:00.952Z,47.57
2022-12-18T08:01:29.561Z,47.48
2022-12-18T08:03:59.581Z,47.06
2022-12-18T08:06:28.029Z,47.55
2022-12-18T08:08:57.062Z,47.64
2022-12-18T08:11:28.560Z,47.33
2022-12-18T08:13:58.391Z,46.70
2022-12-18T08:16:27.227Z,48.28
2022-12-18T08:18:57.140Z,47.03
2022-12-18T08:21:30.548Z,46.74
2022-12-18T08:24:01.814Z,46.79
2022-12-18T08:26:32.518Z,46.89
2022-12-18T08:29:01.818Z,46.95
2022-12-18T08:31:32.132Z,47.36
2022-12-18T08:34:00.828Z,47.41
2022-12-18T08:36:29.486Z,47.15
2022-12-18T08:38:58.119Z,46.53
2022-12-18T08:41:27.492Z,46.57
2022-12-18T08:44:14.706Z,46.98
2022-12-18T08:46:44.414Z,47.26
2022-12-18T08:49:12.968Z,47.34
2022-12-18T08:51:42.473Z,47.23
2022-12-18T08:54:14.571Z,47.70
2022-12-18T08:56:43.060Z,47.94
2022-12-18T08:59:17.572Z,47.69
2022-12-18T09:01:48.958Z,47.47
2022-12-18T09:04:17.857Z,47.31
2022-12-18T09:06:46.633Z,47.30
2022-12-18T09:09:15.315Z,47.46
2022-12-18T09:11:45.843Z,47.36
2022-12-18T09:14:14.613Z,47.57
2022-12-18T09:16:43.398Z,47.09
2022-12-18T09:19:12.179Z,47.16
2022-12-18T09:21:44.796Z,47.31
2022-12-18T09:24:17.503Z,47.45
2022-12-18T09:26:47.319Z,46.76
2022-12-18T09:29:17.720Z,47.46
2022-12-18T09:31:48.102Z,47.64
2022-12-18T09:34:17.691Z,47.67
2022-12-18T09:36:46.426Z,47.58
2022-12-18T09:39:16.020Z,47.50
2022-12-18T09:41:56.771Z,47.31
2022-12-18T09:44:32.487Z,47.54
2022-12-18T09:47:13.500Z,47.49
2022-12-18T09:49:50.303Z,47.54
2022-12-18T09:52:31.481Z,47.68
2022-12-18T09:55:06.323Z,47.43
2022-12-18T09:57:41.871Z,47.78
2022-12-18T10:00:20.609Z,47.62
2022-12-18T10:02:51.790Z,47.32
2022-12-18T10:05:31.817Z,47.59
2022-12-18T10:08:08.802Z,47.09
2022-12-18T10:11:04.289Z,47.05
2022-12-18T10:13:46.996Z,46.99
2022-12-18T10:16:27.317Z,46.89
2022-12-18T10:19:11.186Z,47.46
2022-12-18T10:21:50.462Z,47.26
2022-12-18T10:24:33.518Z,47.26
2022-12-18T10:27:18.963Z,47.31
2022-12-18T10:29:47.738Z,46.86
2022-12-18T10:32:22.786Z,47.12
2022-12-18T10:35:00.172Z,46.87
2022-12-18T10:37:30.963Z,46.54
2022-12-18T10:40:18.238Z,46.91
2022-12-18T10:43:14.488Z,46.79
2022-12-18T10:45:58.279Z,46.64
2022-12-18T10:48:27.810Z,46.66
2022-12-18T10:51:12.959Z,46.60
2022-12-18T10:53:43.624Z,46.57
2022-12-18T10:56:12.751Z,46.94
2022-12-18T10:58:41.554Z,47.12
2022-12-18T11:01:21.260Z,46.57
2022-12-18T11:04:01.671Z,46.54
2022-12-18T11:06:30.860Z,46.68
2022-12-18T11:09:19.689Z,46.90
2022-12-18T11:11:54.364Z,46.57
2022-12-18T11:14:26.003Z,46.51
2022-12-18T11:17:24.733Z,46.81
2022-12-18T11:19:45.039Z,46.32
2022-12-18T11:22:28.964Z,46.61
2022-12-18T11:25:32.152Z,46.73
2022-12-18T11:28:00.566Z,46.63
2022-12-18T11:30:34.821Z,46.41
2022-12-18T11:33:21.813Z,46.70
2022-12-18T11:36:00.901Z,46.70
2022-12-18T11:38:39.084Z,46.51
2022-12-18T11:41:57.536Z,46.12
2022-12-18T11:44:46.547Z,46.60
2022-12-18T11:47:40.140Z,46.15
2022-12-18T11:50:18.507Z,46.28
2022-12-18T11:52:48.501Z,46.51
2022-12-18T11:55:35.075Z,46.26
2022-12-18T11:58:31.139Z,46.35
2022-12-18T12:01:17.573Z,46.07
2022-12-18T12:03:49.684Z,46.12
2022-12-18T12:06:40.094Z,46.19
2022-12-18T12:09:16.630Z,45.89
2022-12-18T12:12:15.387Z,45.95
2022-12-18T12:14:43.824Z,46.06
2022-12-18T12:17:27.435Z,45.82
2022-12-18T12:20:18.006Z,45.48
2022-12-18T12:23:00.260Z,45.08
2022-12-18T12:26:05.195Z,45.36
2022-12-18T12:28:36.753Z,45.45
2022-12-18T12:31:47.690Z,45.38
2022-12-18T12:34:42.567Z,45.37
2022-12-18T12:37:33.748Z,45.47
2022-12-18T12:40:15.361Z,45.16
2022-12-18T12:43:14.361Z,45.28
2022-12-18T12:45:54.893Z,45.22
2022-12-18T12:48:26.193Z,45.08
2022-12-18T12:50:56.081Z,45.06
2022-12-18T12:53:29.911Z,45.36
2022-12-18T12:55:58.967Z,44.89
2022-12-18T12:58:46.337Z,44.96
2022-12-18T13:01:42.034Z,44.95
2022-12-18T13:04:37.392Z,44.85
2022-12-18T13:07:17.415Z,45.01
2022-12-18T13:10:13.200Z,44.94
2022-12-18T13:12:56.805Z,44.77
2022-12-18T13:15:55.693Z,45.11
2022-12-18T13:18:26.326Z,44.75
2022-12-18T13:20:58.488Z,44.70
2022-12-18T13:23:37.386Z,44.57
2022-12-18T13:26:11.951Z,44.62
2022-12-18T13:28:46.927Z,44.68
2022-12-18T13:31:41.967Z,44.43
2022-12-18T13:34:28.294Z,44.21
2022-12-18T13:37:32.839Z,44.26
2022-12-18T13:40:01.355Z,44.56
2022-12-18T13:42:59.815Z,44.49
2022-12-18T13:45:47.575Z,43.92
2022-12-18T13:48:25.119Z,44.13
2022-12-18T13:51:01.292Z,44.43
2022-12-18T13:53:52.822Z,44.39
2022-12-18T13:56:30.962Z,44.31
2022-12-18T13:59:24.899Z,44.00
2022-12-18T14:02:06.331Z,44.20
2022-12-18T14:04:36.911Z,44.12
2022-12-18T14:07:11.536Z,43.95
2022-12-18T14:09:49.870Z,44.39
2022-12-18T14:12:57.692Z,44.35
2022-12-18T14:15:56.656Z,44.49
2022-12-18T14:18:40.105Z,44.28
2022-12-18T14:21:30.677Z,44.45
2022-12-18T14:24:14.719Z,44.31
2022-12-18T14:26:44.329Z,44.57
2022-12-18T14:29:31.019Z,44.11
2022-12-18T14:32:17.747Z,43.94
2022-12-18T14:34:55.049Z,43.80
2022-12-18T14:37:28.314Z,44.18
2022-12-18T14:39:59.793Z,43.79
2022-12-18T14:42:29.468Z,43.89
2022-12-18T14:45:41.793Z,44.03
2022-12-18T14:48:39.777Z,44.29
2022-12-18T14:51:11.254Z,44.30
2022-12-18T14:53:54.148Z,44.06
2022-12-18T14:56:30.106Z,43.86
2022-12-18T14:59:15.173Z,43.84
2022-12-18T15:01:51.525Z,43.99
2022-12-18T15:04:41.709Z,43.89
2022-12-18T15:07:17.794Z,44.08
2022-12-18T15:10:17.793Z,43.84
2022-12-18T15:13:07.040Z,43.84
2022-12-18T15:15:38.544Z,44.02
2022-12-18T15:18:11.458Z,44.00
2022-12-18T15:20:54.356Z,43.75
2022-12-18T15:23:23.004Z,43.95
2022-12-18T15:26:06.909Z,44.02
2022-12-18T15:28:44.126Z,44.11
2022-12-18T15:31:13.089Z,43.98
2022-12-18T15:34:00.559Z,44.08
2022-12-18T15:36:30.415Z,44.13
2022-12-18T15:39:04.671Z,43.89
2022-12-18T15:41:37.108Z,43.77
2022-12-18T15:44:23.861Z,44.01
2022-12-18T15:46:52.232Z,44.13
2022-12-18T15:49:20.768Z,43.64
2022-12-18T15:51:54.188Z,43.76
2022-12-18T15:54:42.792Z,43.85
2022-12-18T15:57:24.097Z,43.54
2022-12-18T15:59:54.156Z,44.01
2022-12-18T16:02:23.935Z,43.60
2022-12-18T16:04:53.324Z,43.88
2022-12-18T16:07:25.122Z,43.54
2022-12-18T16:09:55.186Z,44.02
2022-12-18T16:12:26.484Z,44.02
2022-12-18T16:14:54.930Z,43.88
2022-12-18T16:17:23.405Z,43.91
2022-12-18T16:19:51.811Z,44.14
2022-12-18T16:22:25.871Z,43.98
2022-12-18T16:24:55.511Z,43.27
2022-12-18T16:27:25.091Z,43.54
2022-12-18T16:29:53.506Z,43.61
2022-12-18T16:32:23.405Z,43.61
2022-12-18T16:34:52.063Z,43.58
2022-12-18T16:37:20.524Z,43.72
2022-12-18T16:39:48.982Z,44.10
2022-12-18T16:42:20.108Z,43.90
2022-12-18T16:44:50.184Z,43.84
2022-12-18T16:47:19.088Z,43.25
2022-12-18T16:49:49.064Z,43.69
2022-12-18T16:52:18.709Z,43.80
2022-12-18T16:54:47.335Z,43.73
2022-12-18T16:57:19.058Z,43.27
2022-12-18T16:59:47.791Z,43.37
2022-12-18T17:02:22.830Z,43.75
2022-12-18T17:04:57.415Z,43.72
2022-12-18T17:07:26.962Z,43.70
2022-12-18T17:09:56.388Z,43.56
2022-12-18T17:12:25.079Z,43.40
2022-12-18T17:14:53.578Z,43.56
2022-12-18T17:17:23.286Z,43.78
2022-12-18T17:19:52.810Z,43.51
2022-12-18T17:22:23.173Z,43.49
2022-12-18T17:24:51.804Z,43.33
2022-12-18T17:27:20.240Z,43.12
2022-12-18T17:29:49.234Z,43.26
2022-12-18T17:32:18.269Z,43.09
2022-12-18T17:34:48.051Z,43.09
2022-12-18T17:37:16.480Z,43.58
2022-12-18T17:39:44.979Z,43.17
2022-12-18T17:42:15.736Z,42.96
2022-12-18T17:44:44.948Z,42.93
2022-12-18T17:47:14.134Z,43.07
2022-12-18T17:49:42.758Z,43.28
2022-12-18T17:52:11.407Z,43.27
2022-12-18T17:54:41.929Z,43.25
2022-12-18T17:57:10.528Z,43.11
2022-12-18T17:59:38.944Z,43.18
2022-12-18T18:02:11.334Z,43.27
2022-12-18T18:04:40.770Z,42.99
2022-12-18T18:07:10.292Z,43.04
2022-12-18T18:09:38.755Z,43.26
2022-12-18T18:12:25.628Z,43.02
2022-12-18T18:14:54.425Z,43.23
2022-12-18T18:17:23.216Z,43.10
2022-12-18T18:19:51.569Z,42.87
2022-12-18T18:22:20.072Z,42.95
2022-12-18T18:24:48.761Z,43.30
2022-12-18T18:27:17.273Z,43.43
2022-12-18T18:29:45.818Z,43.54
2022-12-18T18:32:14.240Z,43.33
2022-12-18T18:34:42.744Z,43.27
2022-12-18T18:37:12.057Z,43.31
2022-12-18T18:39:40.597Z,43.44
2022-12-18T18:42:09.107Z,43.03
2022-12-18T18:44:37.472Z,43.27
2022-12-18T18:47:09.409Z,43.17
2022-12-18T18:49:38.294Z,43.26
2022-12-18T18:52:07.395Z,43.20
2022-12-18T18:54:35.818Z,43.23
2022-12-18T18:57:20.241Z,43.02
2022-12-18T18:59:49.506Z,42.77
2022-12-18T19:02:18.163Z,42.89
2022-12-18T19:04:47.127Z,42.78
2022-12-18T19:07:29.346Z,42.41
2022-12-18T19:10:04.092Z,42.86
2022-12-18T19:12:53.697Z,42.91
2022-12-18T19:15:22.288Z,43.23
2022-12-18T19:17:50.993Z,43.19
2022-12-18T19:20:19.655Z,42.98
2022-12-18T19:22:55.340Z,43.04
2022-12-18T19:25:38.412Z,43.28
2022-12-18T19:28:13.246Z,43.38
2022-12-18T19:30:58.975Z,43.37
2022-12-18T19:33:45.202Z,43.62
2022-12-18T19:36:22.930Z,43.73
2022-12-18T19:38:54.263Z,44.08
2022-12-18T19:41:23.958Z,44.58
2022-12-18T19:43:54.142Z,44.59
2022-12-18T19:46:23.764Z,45.05
2022-12-18T19:48:52.417Z,44.59
2022-12-18T19:51:24.679Z,45.15
2022-12-18T19:53:58.144Z,45.27
2022-12-18T19:56:32.548Z,45.21
2022-12-18T19:59:02.767Z,45.10
2022-12-18T20:01:31.487Z,45.16
2022-12-18T20:04:01.132Z,45.65
2022-12-18T20:06:55.558Z,45.69
2022-12-18T20:09:24.111Z,45.52
2022-12-18T20:11:53.528Z,45.66
2022-12-18T20:14:23.045Z,45.89
2022-12-18T20:16:52.542Z,46.09
2022-12-18T20:19:22.324Z,46.41
2022-12-18T20:21:51.148Z,46.58
2022-12-18T20:24:19.629Z,46.73
2022-12-18T20:26:48.037Z,46.88
2022-12-18T20:29:16.441Z,46.65
2022-12-18T20:31:44.891Z,46.96
2022-12-18T20:34:13.461Z,47.17
2022-12-18T20:36:42.308Z,47.54
2022-12-18T20:39:13.301Z,47.39
2022-12-18T20:41:41.939Z,47.81
2022-12-18T20:44:23.112Z,47.53
2022-12-18T20:46:57.882Z,47.89
2022-12-18T20:49:27.538Z,48.05
2022-12-18T20:51:57.858Z,48.37
2022-12-18T20:54:27.609Z,48.33
2022-12-18T20:56:56.791Z,48.55
2022-12-18T20:59:25.765Z,48.53
2022-12-18T21:01:54.876Z,48.49
2022-12-18T21:04:23.981Z,48.74
2022-12-18T21:06:59.142Z,49.01
2022-12-18T21:09:37.739Z,48.92
2022-12-18T21:12:34.895Z,48.83
2022-12-18T21:15:13.090Z,49.15
2022-12-18T21:17:44.411Z,49.27
2022-12-18T21:20:18.146Z,49.45
2022-12-18T21:22:49.187Z,49.09
2022-12-18T21:25:17.907Z,49.20
2022-12-18T21:27:46.293Z,49.12
2022-12-18T21:30:15.061Z,49.32
2022-12-18T21:32:43.644Z,49.46
2022-12-18T21:35:12.234Z,49.92
2022-12-18T21:37:40.663Z,49.73
2022-12-18T21:40:09.502Z,49.46
2022-12-18T21:42:56.575Z,49.94
2022-12-18T21:45:24.923Z,49.98
2022-12-18T21:47:53.315Z,50.20
2022-12-18T21:50:21.735Z,49.93
2022-12-18T21:52:50.153Z,50.34
2022-12-18T21:55:18.628Z,49.78
2022-12-18T21:57:47.040Z,50.55
2022-12-18T22:00:18.371Z,50.09
2022-12-18T22:03:05.647Z,50.33
2022-12-18T22:05:37.235Z,51.10
2022-12-18T22:08:06.859Z,50.86
2022-12-18T22:10:36.502Z,50.66
2022-12-18T22:13:06.729Z,50.31
2022-12-18T22:15:35.238Z,50.38
2022-12-18T22:18:03.798Z,50.26
2022-12-18T22:20:32.361Z,50.32
2022-12-18T22:23:05.721Z,50.34
2022-12-18T22:25:36.273Z,50.25
2022-12-18T22:28:26.821Z,50.23
2022-12-18T22:30:59.142Z,49.96
2022-12-18T22:33:28.368Z,50.60
2022-12-18T22:35:56.783Z,50.64
2022-12-18T22:38:25.340Z,50.07
2022-12-18T22:40:54.739Z,50.00
2022-12-18T22:43:23.287Z,49.79
2022-12-18T22:45:51.664Z,50.01
2022-12-18T22:48:20.393Z,50.05
2022-12-18T22:50:49.561Z,50.06
2022-12-18T22:53:19.329Z,51.04
2022-12-18T22:55:47.769Z,51.60
2022-12-18T22:58:16.154Z,51.33
2022-12-18T23:00:44.624Z,50.57
2022-12-18T23:03:13.209Z,51.04
2022-12-18T23:05:41.702Z,50.32
2022-12-18T23:08:10.165Z,50.65
2022-12-18T23:10:39.381Z,50.46
2022-12-18T23:13:07.797Z,50.64
2022-12-18T23:15:41.972Z,51.26
2022-12-18T23:18:10.379Z,51.57
2022-12-18T23:20:38.877Z,50.97
2022-12-18T23:23:08.687Z,51.18
2022-12-18T23:25:37.394Z,50.81
2022-12-18T23:28:06.357Z,51.09
2022-12-18T23:30:35.090Z,51.33
2022-12-18T23:33:03.583Z,51.51
2022-12-18T23:35:32.058Z,51.21
2022-12-18T23:38:00.874Z,51.33
2022-12-18T23:40:29.923Z,50.67
2022-12-18T23:42:59.129Z,50.82
2022-12-18T23:45:27.546Z,51.10
2022-12-18T23:47:56.111Z,51.95
2022-12-18T23:50:29.438Z,51.72
2022-12-18T23:53:04.878Z,51.36
2022-12-18T23:55:39.682Z,51.61
2022-12-18T23:58:19.367Z,51.95
